createdAt,value
2022-08-26T00:01:30.625Z,19.86
2022-08-26T00:03:57.545Z,19.81
2022-08-26T00:06:24.922Z,19.81
2022-08-26T00:08:51.819Z,19.80
2022-08-26T00:11:26.542Z,19.80
2022-08-26T00:13:56.707Z,19.79
2022-08-26T00:16:28.253Z,19.82
2022-08-26T00:18:56.070Z,19.83
2022-08-26T00:21:22.601Z,19.80
2022-08-26T00:23:50.086Z,19.72
2022-08-26T00:26:16.589Z,19.63
2022-08-26T00:28:43.034Z,19.64
2022-08-26T00:31:11.111Z,19.59
2022-08-26T00:33:38.635Z,19.56
2022-08-26T00:36:05.959Z,19.60
2022-08-26T00:38:32.638Z,19.53
2022-08-26T00:40:59.536Z,19.49
2022-08-26T00:43:26.806Z,19.47
2022-08-26T00:46:05.039Z,19.48
2022-08-26T00:48:33.923Z,19.31
2022-08-26T00:51:11.805Z,19.36
2022-08-26T00:53:45.667Z,19.40
2022-08-26T00:56:24.160Z,19.38
2022-08-26T00:58:51.097Z,19.38
2022-08-26T01:01:18.221Z,19.36
2022-08-26T01:03:49.733Z,19.33
2022-08-26T01:06:16.268Z,19.33
2022-08-26T01:08:43.433Z,19.34
2022-08-26T01:11:11.371Z,19.32
2022-08-26T01:13:38.738Z,19.34
2022-08-26T01:16:10.496Z,19.35
2022-08-26T01:18:37.162Z,19.37
2022-08-26T01:21:20.178Z,19.35
2022-08-26T01:23:50.183Z,19.29
2022-08-26T01:26:21.954Z,19.33
2022-08-26T01:28:51.860Z,19.33
2022-08-26T01:31:22.647Z,19.34
2022-08-26T01:34:13.317Z,19.33
2022-08-26T01:36:40.627Z,19.30
2022-08-26T01:39:08.655Z,19.31
2022-08-26T01:41:37.969Z,19.28
2022-08-26T01:44:09.825Z,19.24
2022-08-26T01:46:36.944Z,19.23
2022-08-26T01:49:06.751Z,19.21
2022-08-26T01:51:37.243Z,19.09
2022-08-26T01:54:06.162Z,19.20
2022-08-26T01:56:36.446Z,19.18
2022-08-26T01:59:06.938Z,19.18
2022-08-26T02:01:36.242Z,19.16
2022-08-26T02:04:35.394Z,19.15
2022-08-26T02:07:08.270Z,18.97
2022-08-26T02:09:41.351Z,19.20
2022-08-26T02:12:09.164Z,19.24
2022-08-26T02:14:43.790Z,19.25
2022-08-26T02:17:11.209Z,19.24
2022-08-26T02:19:41.657Z,19.20
2022-08-26T02:22:13.944Z,19.22
2022-08-26T02:24:56.193Z,19.17
2022-08-26T02:27:31.976Z,19.28
2022-08-26T02:30:08.292Z,19.20
2022-08-26T02:32:34.903Z,19.27
2022-08-26T02:35:01.799Z,19.24
2022-08-26T02:37:30.854Z,19.21
2022-08-26T02:39:57.698Z,19.24
2022-08-26T02:42:24.154Z,19.25
2022-08-26T02:44:51.778Z,19.26
2022-08-26T02:47:18.251Z,19.24
2022-08-26T02:49:47.396Z,19.24
2022-08-26T02:52:14.456Z,19.21
2022-08-26T02:54:41.193Z,19.18
2022-08-26T02:57:08.060Z,19.23
2022-08-26T02:59:36.041Z,19.21
2022-08-26T03:02:03.255Z,19.23
2022-08-26T03:04:31.080Z,19.26
2022-08-26T03:07:00.047Z,19.25
2022-08-26T03:09:27.116Z,19.27
2022-08-26T03:11:55.301Z,19.26
2022-08-26T03:14:23.937Z,19.26
2022-08-26T03:16:54.440Z,19.24
2022-08-26T03:19:23.314Z,19.26
2022-08-26T03:21:50.117Z,19.25
2022-08-26T03:24:18.813Z,19.25
2022-08-26T03:26:52.554Z,19.26
2022-08-26T03:29:38.118Z,19.29
2022-08-26T03:32:06.172Z,19.28
2022-08-26T03:34:32.986Z,19.34
2022-08-26T03:36:59.577Z,19.36
2022-08-26T03:39:26.332Z,19.32
2022-08-26T03:41:53.701Z,19.32
2022-08-26T03:44:20.578Z,19.29
2022-08-26T03:46:47.074Z,19.28
2022-08-26T03:49:15.155Z,19.27
2022-08-26T03:51:42.087Z,19.24
2022-08-26T03:54:09.255Z,19.25
2022-08-26T03:56:36.653Z,19.23
2022-08-26T03:59:04.943Z,19.21
2022-08-26T04:01:34.232Z,19.26
2022-08-26T04:04:01.414Z,19.26
2022-08-26T04:06:42.403Z,19.23
2022-08-26T04:09:20.735Z,19.24
2022-08-26T04:11:50.493Z,19.26
2022-08-26T04:14:21.162Z,19.23
2022-08-26T04:16:48.692Z,19.18
2022-08-26T04:19:16.650Z,19.19
2022-08-26T04:21:45.025Z,19.20
2022-08-26T04:24:14.063Z,19.19
2022-08-26T04:26:42.820Z,19.11
2022-08-26T04:29:18.101Z,19.01
2022-08-26T04:31:44.956Z,19.04
2022-08-26T04:34:11.488Z,19.01
2022-08-26T04:36:41.085Z,19.00
2022-08-26T04:39:11.975Z,19.03
2022-08-26T04:41:39.625Z,19.03
2022-08-26T04:44:07.793Z,19.09
2022-08-26T04:46:34.882Z,19.10
2022-08-26T04:49:01.521Z,19.09
2022-08-26T04:51:28.438Z,19.07
2022-08-26T04:54:01.070Z,19.08
2022-08-26T04:56:30.749Z,18.90
2022-08-26T04:58:57.229Z,19.09
2022-08-26T05:01:24.054Z,19.07
2022-08-26T05:03:51.441Z,19.08
2022-08-26T05:06:19.954Z,19.10
2022-08-26T05:08:46.785Z,19.12
2022-08-26T05:11:13.545Z,19.11
2022-08-26T05:13:40.374Z,19.09
2022-08-26T05:16:11.633Z,19.07
2022-08-26T05:18:39.543Z,19.05
2022-08-26T05:21:07.171Z,19.02
2022-08-26T05:23:35.848Z,18.99
2022-08-26T05:26:06.671Z,18.99
2022-08-26T05:28:34.647Z,18.97
2022-08-26T05:31:02.088Z,19.00
2022-08-26T05:33:29.346Z,18.99
2022-08-26T05:35:55.826Z,18.92
2022-08-26T05:38:23.382Z,19.04
2022-08-26T05:40:52.894Z,18.99
2022-08-26T05:43:20.215Z,19.05
2022-08-26T05:45:49.228Z,19.04
2022-08-26T05:48:18.512Z,19.02
2022-08-26T05:50:51.638Z,18.90
2022-08-26T05:53:20.748Z,18.96
2022-08-26T05:55:50.579Z,19.01
2022-08-26T05:58:20.197Z,19.05
2022-08-26T06:01:07.596Z,19.11
2022-08-26T06:03:36.160Z,19.07
2022-08-26T06:06:04.508Z,19.11
2022-08-26T06:08:33.933Z,19.14
2022-08-26T06:11:04.453Z,19.05
2022-08-26T06:13:33.647Z,19.18
2022-08-26T06:16:05.363Z,19.06
2022-08-26T06:18:36.335Z,19.14
2022-08-26T06:21:24.690Z,19.07
2022-08-26T06:24:11.465Z,19.02
2022-08-26T06:26:39.419Z,18.95
2022-08-26T06:29:09.678Z,18.99
2022-08-26T06:31:36.968Z,18.98
2022-08-26T06:34:10.351Z,19.01
2022-08-26T06:36:37.870Z,19.02
2022-08-26T06:39:10.024Z,19.03
2022-08-26T06:41:43.135Z,18.91
2022-08-26T06:44:09.952Z,19.00
2022-08-26T06:46:36.698Z,19.01
2022-08-26T06:49:03.402Z,19.04
2022-08-26T06:51:33.221Z,19.04
2022-08-26T06:54:01.949Z,19.05
2022-08-26T06:56:34.676Z,19.08
2022-08-26T06:59:01.861Z,19.02
2022-08-26T07:01:32.099Z,19.00
2022-08-26T07:04:00.832Z,19.05
2022-08-26T07:06:28.253Z,19.04
2022-08-26T07:09:04.745Z,19.05
2022-08-26T07:11:35.060Z,19.10
2022-08-26T07:14:01.661Z,19.15
2022-08-26T07:16:28.877Z,19.20
2022-08-26T07:18:56.108Z,19.15
2022-08-26T07:21:24.469Z,19.10
2022-08-26T07:23:51.705Z,19.10
2022-08-26T07:26:22.817Z,19.09
2022-08-26T07:28:53.465Z,19.06
2022-08-26T07:31:25.178Z,18.95
2022-08-26T07:33:52.089Z,19.09
2022-08-26T07:36:19.478Z,19.13
2022-08-26T07:38:48.014Z,19.14
2022-08-26T07:41:17.403Z,19.18
2022-08-26T07:43:45.421Z,19.19
2022-08-26T07:46:20.737Z,19.17
2022-08-26T07:48:54.138Z,19.14
2022-08-26T07:51:21.922Z,19.17
2022-08-26T07:53:52.304Z,19.14
2022-08-26T07:56:19.608Z,19.14
2022-08-26T07:58:50.509Z,19.14
2022-08-26T08:01:18.454Z,19.17
2022-08-26T08:03:45.349Z,19.19
2022-08-26T08:06:11.993Z,19.21
2022-08-26T08:08:40.734Z,19.22
2022-08-26T08:11:07.502Z,19.18
2022-08-26T08:13:37.426Z,19.20
2022-08-26T08:16:05.026Z,19.19
2022-08-26T08:18:31.731Z,19.19
2022-08-26T08:21:10.818Z,19.19
2022-08-26T08:23:45.281Z,19.15
2022-08-26T08:26:11.899Z,19.19
2022-08-26T08:28:39.739Z,19.26
2022-08-26T08:31:08.167Z,19.28
2022-08-26T08:33:35.303Z,19.32
2022-08-26T08:36:01.974Z,19.31
2022-08-26T08:38:29.580Z,19.40
2022-08-26T08:40:56.060Z,19.44
2022-08-26T08:43:40.189Z,19.55
2022-08-26T08:46:16.447Z,19.62
2022-08-26T08:48:48.270Z,19.72
2022-08-26T08:51:33.961Z,19.83
2022-08-26T08:54:02.640Z,19.86
2022-08-26T08:56:38.949Z,19.79
2022-08-26T08:59:12.959Z,19.77
2022-08-26T09:01:52.451Z,19.79
2022-08-26T09:04:54.344Z,19.81
2022-08-26T09:07:26.103Z,19.69
2022-08-26T09:10:00.886Z,19.59
2022-08-26T09:12:31.088Z,19.52
2022-08-26T09:15:07.745Z,19.39
2022-08-26T09:17:49.459Z,19.43
2022-08-26T09:20:42.145Z,19.38
2022-08-26T09:23:12.301Z,19.30
2022-08-26T09:25:50.147Z,19.26
2022-08-26T09:28:20.193Z,19.30
2022-08-26T09:30:59.075Z,19.15
2022-08-26T09:33:31.431Z,19.22
2022-08-26T09:36:26.285Z,19.23
2022-08-26T09:38:54.320Z,19.25
2022-08-26T09:41:27.651Z,19.20
2022-08-26T09:44:33.158Z,19.31
2022-08-26T09:47:05.559Z,19.12
2022-08-26T09:49:36.428Z,19.32
2022-08-26T09:52:13.677Z,19.43
2022-08-26T09:54:44.307Z,19.52
2022-08-26T09:57:27.270Z,19.59
2022-08-26T09:59:55.491Z,19.67
2022-08-26T10:02:36.961Z,19.72
2022-08-26T10:05:09.652Z,19.78
2022-08-26T10:07:50.346Z,19.67
2022-08-26T10:10:33.034Z,19.64
2022-08-26T10:13:24.014Z,19.72
2022-08-26T10:16:11.096Z,19.73
2022-08-26T10:18:47.719Z,19.66
2022-08-26T10:21:23.512Z,19.65
2022-08-26T10:23:55.340Z,19.66
2022-08-26T10:26:35.974Z,19.69
2022-08-26T10:29:12.277Z,19.69
2022-08-26T10:31:51.622Z,19.60
2022-08-26T10:34:18.788Z,19.75
2022-08-26T10:37:14.460Z,19.78
2022-08-26T10:40:00.914Z,20.02
2022-08-26T10:42:54.851Z,20.11
2022-08-26T10:45:26.169Z,20.24
2022-08-26T10:48:02.920Z,20.48
2022-08-26T10:50:38.295Z,20.62
2022-08-26T10:53:17.795Z,20.93
2022-08-26T10:55:56.327Z,21.17
2022-08-26T10:58:38.381Z,21.22
2022-08-26T11:01:34.830Z,21.08
2022-08-26T11:04:28.802Z,21.06
2022-08-26T11:07:34.264Z,21.25
2022-08-26T11:10:10.282Z,21.41
2022-08-26T11:12:37.366Z,21.45
2022-08-26T11:15:10.178Z,21.38
2022-08-26T11:17:45.864Z,21.62
2022-08-26T11:20:34.084Z,21.70
2022-08-26T11:23:13.150Z,21.48
2022-08-26T11:25:57.954Z,21.31
2022-08-26T11:28:44.096Z,21.19
2022-08-26T11:31:31.769Z,21.32
2022-08-26T11:34:07.130Z,21.52
2022-08-26T11:36:54.397Z,21.58
2022-08-26T11:39:33.354Z,21.66
2022-08-26T11:42:32.499Z,21.42
2022-08-26T11:45:01.382Z,21.28
2022-08-26T11:47:31.912Z,21.28
2022-08-26T11:50:20.163Z,21.10
2022-08-26T11:52:56.366Z,21.06
2022-08-26T11:55:24.234Z,21.01
2022-08-26T11:57:57.589Z,20.93
2022-08-26T12:00:33.726Z,20.93
2022-08-26T12:03:06.070Z,20.77
2022-08-26T12:05:42.456Z,20.83
2022-08-26T12:08:12.635Z,20.68
2022-08-26T12:10:40.125Z,20.91
2022-08-26T12:13:07.203Z,21.01
2022-08-26T12:15:35.491Z,20.97
2022-08-26T12:18:29.298Z,20.81
2022-08-26T12:20:59.384Z,21.00
2022-08-26T12:23:34.948Z,21.00
2022-08-26T12:26:21.021Z,20.95
2022-08-26T12:28:59.758Z,20.81
2022-08-26T12:31:28.197Z,20.86
2022-08-26T12:33:59.166Z,20.70
2022-08-26T12:36:41.381Z,20.69
2022-08-26T12:39:10.627Z,20.65
2022-08-26T12:41:48.122Z,20.66
2022-08-26T12:44:53.099Z,20.66
2022-08-26T12:47:43.459Z,20.66
2022-08-26T12:50:18.861Z,20.50
2022-08-26T12:53:01.723Z,20.38
2022-08-26T12:55:41.336Z,20.58
2022-08-26T12:58:21.207Z,20.55
2022-08-26T13:01:18.603Z,20.60
2022-08-26T13:03:46.040Z,20.64
2022-08-26T13:06:22.256Z,20.65
2022-08-26T13:08:54.473Z,20.74
2022-08-26T13:11:29.441Z,20.70
2022-08-26T13:14:08.187Z,20.77
2022-08-26T13:16:36.651Z,20.73
2022-08-26T13:19:12.224Z,20.70
2022-08-26T13:21:56.412Z,20.62
2022-08-26T13:24:28.697Z,20.62
2022-08-26T13:26:55.254Z,20.62
2022-08-26T13:29:22.133Z,20.69
2022-08-26T13:31:49.149Z,20.60
2022-08-26T13:34:19.200Z,20.68
2022-08-26T13:36:47.710Z,20.70
2022-08-26T13:39:14.517Z,20.69
2022-08-26T13:41:41.143Z,20.75
2022-08-26T13:44:07.677Z,20.73
2022-08-26T13:46:34.354Z,20.69
2022-08-26T13:49:02.175Z,20.68
2022-08-26T13:51:29.959Z,20.65
2022-08-26T13:53:57.417Z,20.73
2022-08-26T13:56:27.521Z,20.66
2022-08-26T13:58:54.025Z,20.54
2022-08-26T14:01:20.623Z,20.58
2022-08-26T14:03:47.253Z,20.51
2022-08-26T14:06:14.182Z,20.50
2022-08-26T14:08:41.908Z,20.54
2022-08-26T14:11:08.718Z,20.63
2022-08-26T14:13:35.471Z,20.70
2022-08-26T14:16:05.153Z,20.78
2022-08-26T14:18:36.323Z,20.78
2022-08-26T14:21:08.128Z,20.72
2022-08-26T14:23:34.982Z,20.66
2022-08-26T14:26:03.922Z,20.58
2022-08-26T14:28:30.431Z,20.52
2022-08-26T14:30:58.307Z,20.39
2022-08-26T14:33:28.695Z,20.33
2022-08-26T14:36:15.203Z,20.28
2022-08-26T14:38:41.975Z,20.26
2022-08-26T14:41:09.484Z,20.32
2022-08-26T14:43:37.184Z,20.37
2022-08-26T14:46:04.182Z,20.35
2022-08-26T14:48:30.676Z,20.32
2022-08-26T14:50:57.171Z,20.39
2022-08-26T14:53:42.280Z,20.52
2022-08-26T14:56:09.733Z,20.66
2022-08-26T14:58:38.384Z,20.56
2022-08-26T15:01:05.051Z,20.44
2022-08-26T15:03:31.521Z,20.36
2022-08-26T15:05:58.042Z,20.36
2022-08-26T15:08:24.562Z,20.44
2022-08-26T15:10:51.120Z,20.49
2022-08-26T15:13:17.599Z,20.54
2022-08-26T15:15:44.530Z,20.56
2022-08-26T15:18:11.212Z,20.52
2022-08-26T15:20:38.255Z,20.49
2022-08-26T15:23:06.592Z,20.49
2022-08-26T15:25:33.318Z,20.49
2022-08-26T15:27:59.826Z,20.48
2022-08-26T15:30:27.339Z,20.48
2022-08-26T15:32:53.832Z,20.39
2022-08-26T15:35:20.294Z,20.34
2022-08-26T15:37:46.858Z,20.29
2022-08-26T15:40:13.816Z,20.32
2022-08-26T15:42:40.388Z,20.36
2022-08-26T15:45:07.462Z,20.26
2022-08-26T15:47:34.386Z,20.20
2022-08-26T15:50:20.550Z,20.13
2022-08-26T15:52:47.977Z,20.12
2022-08-26T15:55:14.516Z,20.08
2022-08-26T15:57:41.129Z,20.03
2022-08-26T16:00:09.588Z,20.01
2022-08-26T16:02:36.084Z,20.02
2022-08-26T16:05:02.752Z,20.04
2022-08-26T16:07:31.745Z,19.95
2022-08-26T16:09:58.499Z,19.80
2022-08-26T16:12:24.979Z,19.83
2022-08-26T16:14:51.572Z,19.79
2022-08-26T16:17:20.606Z,19.75
2022-08-26T16:19:47.116Z,19.69
2022-08-26T16:22:13.679Z,19.62
2022-08-26T16:24:40.168Z,19.63
2022-08-26T16:27:06.807Z,19.59
2022-08-26T16:29:33.400Z,19.48
2022-08-26T16:31:59.930Z,19.54
2022-08-26T16:34:26.357Z,19.54
2022-08-26T16:36:53.108Z,19.54
2022-08-26T16:39:19.588Z,19.52
2022-08-26T16:41:46.100Z,19.53
2022-08-26T16:44:12.803Z,19.53
2022-08-26T16:46:39.725Z,19.49
2022-08-26T16:49:06.571Z,19.47
2022-08-26T16:51:38.093Z,19.43
2022-08-26T16:54:06.976Z,19.45
2022-08-26T16:56:34.525Z,19.35
2022-08-26T16:59:02.416Z,19.33
2022-08-26T17:01:29.027Z,19.33
2022-08-26T17:03:55.615Z,19.31
2022-08-26T17:06:22.083Z,19.26
2022-08-26T17:08:48.614Z,19.23
2022-08-26T17:11:15.567Z,19.23
2022-08-26T17:13:42.623Z,19.23
2022-08-26T17:16:14.406Z,19.20
2022-08-26T17:18:41.339Z,19.10
2022-08-26T17:21:11.555Z,19.05
2022-08-26T17:23:39.091Z,19.02
2022-08-26T17:26:05.736Z,19.03
2022-08-26T17:28:32.883Z,19.00
2022-08-26T17:31:00.123Z,18.95
2022-08-26T17:33:27.703Z,18.96
2022-08-26T17:35:55.392Z,18.95
2022-08-26T17:38:22.493Z,18.94
2022-08-26T17:40:49.616Z,18.90
2022-08-26T17:43:16.707Z,18.86
2022-08-26T17:45:43.422Z,18.83
2022-08-26T17:48:11.011Z,18.77
2022-08-26T17:50:42.666Z,18.75
2022-08-26T17:53:18.466Z,18.70
2022-08-26T17:55:45.727Z,18.71
2022-08-26T17:58:14.555Z,18.69
2022-08-26T18:00:48.170Z,18.67
2022-08-26T18:03:15.250Z,18.66
2022-08-26T18:05:42.747Z,18.65
2022-08-26T18:08:09.782Z,18.60
2022-08-26T18:10:36.255Z,18.55
2022-08-26T18:13:02.789Z,18.48
2022-08-26T18:15:29.356Z,18.47
2022-08-26T18:17:55.791Z,18.38
2022-08-26T18:20:22.392Z,18.36
2022-08-26T18:22:48.913Z,18.32
2022-08-26T18:25:18.978Z,18.29
2022-08-26T18:27:45.389Z,18.24
2022-08-26T18:30:20.660Z,18.17
2022-08-26T18:32:48.301Z,18.19
2022-08-26T18:35:15.231Z,18.07
2022-08-26T18:37:41.936Z,18.08
2022-08-26T18:40:10.778Z,17.97
2022-08-26T18:42:37.390Z,17.95
2022-08-26T18:45:05.960Z,17.85
2022-08-26T18:47:32.903Z,17.86
2022-08-26T18:50:00.841Z,17.81
2022-08-26T18:52:27.677Z,17.80
2022-08-26T18:54:54.259Z,17.73
2022-08-26T18:57:20.733Z,17.71
2022-08-26T18:59:47.132Z,17.69
2022-08-26T19:02:13.698Z,17.63
2022-08-26T19:04:40.290Z,17.55
2022-08-26T19:07:07.410Z,17.56
2022-08-26T19:09:34.221Z,17.55
2022-08-26T19:12:03.723Z,17.43
2022-08-26T19:14:31.628Z,17.47
2022-08-26T19:16:58.693Z,17.38
2022-08-26T19:19:25.199Z,17.34
2022-08-26T19:21:52.552Z,17.36
2022-08-26T19:24:20.558Z,17.34
2022-08-26T19:26:57.894Z,17.36
2022-08-26T19:29:27.269Z,17.38
2022-08-26T19:31:53.804Z,17.32
2022-08-26T19:34:20.839Z,17.30
2022-08-26T19:36:48.418Z,17.19
2022-08-26T19:39:14.968Z,17.21
2022-08-26T19:41:41.398Z,17.21
2022-08-26T19:44:34.576Z,17.13
2022-08-26T19:47:03.500Z,17.05
2022-08-26T19:49:29.971Z,17.06
2022-08-26T19:51:56.648Z,17.05
2022-08-26T19:54:23.159Z,17.04
2022-08-26T19:56:49.896Z,17.08
2022-08-26T19:59:17.414Z,17.06
2022-08-26T20:01:43.945Z,16.99
2022-08-26T20:04:10.481Z,17.00
2022-08-26T20:06:36.877Z,16.95
2022-08-26T20:09:03.381Z,16.87
2022-08-26T20:11:29.808Z,16.83
2022-08-26T20:13:57.140Z,16.81
2022-08-26T20:16:23.625Z,16.86
2022-08-26T20:19:08.860Z,16.85
2022-08-26T20:21:39.204Z,16.84
2022-08-26T20:24:13.031Z,16.84
2022-08-26T20:26:41.868Z,16.78
2022-08-26T20:29:10.683Z,16.78
2022-08-26T20:31:38.373Z,16.87
2022-08-26T20:34:05.997Z,16.93
2022-08-26T20:36:33.582Z,16.95
2022-08-26T20:39:00.415Z,16.89
2022-08-26T20:41:27.579Z,16.88
2022-08-26T20:43:55.059Z,16.81
2022-08-26T20:46:24.885Z,16.73
2022-08-26T20:48:53.082Z,16.65
2022-08-26T20:51:20.198Z,16.65
2022-08-26T20:53:46.940Z,16.58
2022-08-26T20:56:15.177Z,16.53
2022-08-26T20:58:42.228Z,16.49
2022-08-26T21:01:18.168Z,16.38
2022-08-26T21:03:45.742Z,16.44
2022-08-26T21:06:12.542Z,16.44
2022-08-26T21:08:42.655Z,16.44
2022-08-26T21:11:10.103Z,16.35
2022-08-26T21:13:54.431Z,16.27
2022-08-26T21:16:24.689Z,16.31
2022-08-26T21:18:51.434Z,16.24
2022-08-26T21:21:18.671Z,16.21
2022-08-26T21:23:51.673Z,16.12
2022-08-26T21:26:18.238Z,16.10
2022-08-26T21:28:46.291Z,16.17
2022-08-26T21:31:16.419Z,15.94
2022-08-26T21:33:43.103Z,16.13
2022-08-26T21:36:11.542Z,15.80
2022-08-26T21:38:38.306Z,15.91
2022-08-26T21:41:08.438Z,15.82
2022-08-26T21:43:36.705Z,15.78
2022-08-26T21:46:14.444Z,15.64
2022-08-26T21:48:50.528Z,15.62
2022-08-26T21:51:19.962Z,15.69
2022-08-26T21:53:46.861Z,15.63
2022-08-26T21:56:17.999Z,15.58
2022-08-26T21:58:44.816Z,15.52
2022-08-26T22:01:14.873Z,15.51
2022-08-26T22:03:47.575Z,15.53
2022-08-26T22:06:17.474Z,15.11
2022-08-26T22:08:44.051Z,15.49
2022-08-26T22:11:11.007Z,15.50
2022-08-26T22:13:39.479Z,15.38
2022-08-26T22:16:06.962Z,15.47
2022-08-26T22:18:34.911Z,15.50
2022-08-26T22:21:05.396Z,15.53
2022-08-26T22:23:32.582Z,15.54
2022-08-26T22:25:59.828Z,15.50
2022-08-26T22:28:27.092Z,15.48
2022-08-26T22:30:55.651Z,15.52
2022-08-26T22:33:22.959Z,15.54
2022-08-26T22:35:50.986Z,15.53
2022-08-26T22:38:17.843Z,15.32
2022-08-26T22:40:50.429Z,15.35
2022-08-26T22:43:18.435Z,15.33
2022-08-26T22:45:47.924Z,15.34
2022-08-26T22:48:17.953Z,15.31
2022-08-26T22:50:46.359Z,15.28
2022-08-26T22:53:13.475Z,15.21
2022-08-26T22:55:39.971Z,15.13
2022-08-26T22:58:06.965Z,15.08
2022-08-26T23:00:34.372Z,15.02
2022-08-26T23:03:02.262Z,15.01
2022-08-26T23:05:29.611Z,14.97
2022-08-26T23:07:56.827Z,14.97
2022-08-26T23:10:24.272Z,14.93
2022-08-26T23:12:52.452Z,14.94
2022-08-26T23:15:20.934Z,14.89
2022-08-26T23:17:48.374Z,14.86
2022-08-26T23:20:25.147Z,14.82
2022-08-26T23:22:52.639Z,14.80
2022-08-26T23:25:19.632Z,14.72
2022-08-26T23:27:47.133Z,14.71
2022-08-26T23:30:19.106Z,14.71
2022-08-26T23:32:45.991Z,14.74
2022-08-26T23:35:14.344Z,14.72
2022-08-26T23:37:44.156Z,14.70
2022-08-26T23:40:17.426Z,14.66
2022-08-26T23:42:44.377Z,14.57
2022-08-26T23:45:13.528Z,14.57
2022-08-26T23:47:41.237Z,14.55
2022-08-26T23:50:08.748Z,14.47
2022-08-26T23:52:53.884Z,14.44
2022-08-26T23:55:20.713Z,14.48
2022-08-26T23:57:47.392Z,14.45
